sensor_id;sensor_type;location;lat;lon;timestamp;temperature;humidity
12841;DHT22;6487;48.626;12.486;2023-05-07T00:00:47;13.40;99.90
12841;DHT22;6487;48.626;12.486;2023-05-07T00:03:16;13.30;99.90
12841;DHT22;6487;48.626;12.486;2023-05-07T00:05:46;13.10;99.90
12841;DHT22;6487;48.626;12.486;2023-05-07T00:08:14;12.90;99.90
12841;DHT22;6487;48.626;12.486;2023-05-07T00:10:43;12.80;99.90
12841;DHT22;6487;48.626;12.486;2023-05-07T00:13:13;13.00;99.90
12841;DHT22;6487;48.626;12.486;2023-05-07T00:15:41;13.00;99.90
12841;DHT22;6487;48.626;12.486;2023-05-07T00:18:09;13.00;99.90
12841;DHT22;6487;48.626;12.486;2023-05-07T00:20:38;13.00;99.90
12841;DHT22;6487;48.626;12.486;2023-05-07T00:23:06;12.90;99.90
12841;DHT22;6487;48.626;12.486;2023-05-07T00:25:34;12.80;99.90
12841;DHT22;6487;48.626;12.486;2023-05-07T00:28:03;13.00;99.90
12841;DHT22;6487;48.626;12.486;2023-05-07T00:30:32;13.00;99.90
12841;DHT22;6487;48.626;12.486;2023-05-07T00:33:01;12.90;99.90
12841;DHT22;6487;48.626;12.486;2023-05-07T00:35:29;12.90;99.90
12841;DHT22;6487;48.626;12.486;2023-05-07T00:37:57;13.00;99.90
12841;DHT22;6487;48.626;12.486;2023-05-07T00:40:26;12.90;99.90
12841;DHT22;6487;48.626;12.486;2023-05-07T00:42:55;12.90;99.90
12841;DHT22;6487;48.626;12.486;2023-05-07T00:45:26;12.90;99.90
12841;DHT22;6487;48.626;12.486;2023-05-07T00:47:58;12.80;99.90
12841;DHT22;6487;48.626;12.486;2023-05-07T00:50:28;12.80;99.90
12841;DHT22;6487;48.626;12.486;2023-05-07T00:52:56;12.80;99.90
12841;DHT22;6487;48.626;12.486;2023-05-07T00:55:25;12.90;99.90
12841;DHT22;6487;48.626;12.486;2023-05-07T00:57:53;12.90;99.90
12841;DHT22;6487;48.626;12.486;2023-05-07T01:00:22;12.80;99.90
12841;DHT22;6487;48.626;12.486;2023-05-07T01:02:51;12.80;99.90
12841;DHT22;6487;48.626;12.486;2023-05-07T01:05:26;12.70;99.90
12841;DHT22;6487;48.626;12.486;2023-05-07T01:07:56;12.80;99.90
12841;DHT22;6487;48.626;12.486;2023-05-07T01:10:26;12.70;99.90
12841;DHT22;6487;48.626;12.486;2023-05-07T01:12:54;12.70;99.90
12841;DHT22;6487;48.626;12.486;2023-05-07T01:15:29;12.60;99.90
12841;DHT22;6487;48.626;12.486;2023-05-07T01:17:57;12.60;99.90
12841;DHT22;6487;48.626;12.486;2023-05-07T01:20:30;12.50;99.90
12841;DHT22;6487;48.626;12.486;2023-05-07T01:23:03;12.60;99.90
12841;DHT22;6487;48.626;12.486;2023-05-07T01:25:33;12.60;99.90
12841;DHT22;6487;48.626;12.486;2023-05-07T01:28:01;12.60;99.90
12841;DHT22;6487;48.626;12.486;2023-05-07T01:30:30;12.60;99.90
12841;DHT22;6487;48.626;12.486;2023-05-07T01:33:01;12.60;99.90
12841;DHT22;6487;48.626;12.486;2023-05-07T01:35:36;12.60;99.90
12841;DHT22;6487;48.626;12.486;2023-05-07T01:38:08;12.50;99.90
12841;DHT22;6487;48.626;12.486;2023-05-07T01:40:39;12.40;99.90
12841;DHT22;6487;48.626;12.486;2023-05-07T01:43:10;12.40;99.90
12841;DHT22;6487;48.626;12.486;2023-05-07T01:45:42;12.40;99.90
12841;DHT22;6487;48.626;12.486;2023-05-07T01:48:12;12.40;99.90
12841;DHT22;6487;48.626;12.486;2023-05-07T01:50:42;12.30;99.90
12841;DHT22;6487;48.626;12.486;2023-05-07T01:53:12;12.40;99.90
12841;DHT22;6487;48.626;12.486;2023-05-07T01:55:40;12.30;99.90
12841;DHT22;6487;48.626;12.486;2023-05-07T01:58:09;12.20;99.90
12841;DHT22;6487;48.626;12.486;2023-05-07T02:00:37;12.20;99.90
12841;DHT22;6487;48.626;12.486;2023-05-07T02:05:35;12.20;99.90
12841;DHT22;6487;48.626;12.486;2023-05-07T02:08:04;12.20;99.90
12841;DHT22;6487;48.626;12.486;2023-05-07T02:10:34;12.20;99.90
12841;DHT22;6487;48.626;12.486;2023-05-07T02:13:02;12.20;99.90
12841;DHT22;6487;48.626;12.486;2023-05-07T02:15:31;12.20;99.90
12841;DHT22;6487;48.626;12.486;2023-05-07T02:18:01;12.00;99.90
12841;DHT22;6487;48.626;12.486;2023-05-07T02:20:31;12.00;99.90
12841;DHT22;6487;48.626;12.486;2023-05-07T02:22:59;12.00;99.90
12841;DHT22;6487;48.626;12.486;2023-05-07T02:25:28;12.10;99.90
12841;DHT22;6487;48.626;12.486;2023-05-07T02:27:58;12.10;99.90
12841;DHT22;6487;48.626;12.486;2023-05-07T02:30:26;12.10;99.90
12841;DHT22;6487;48.626;12.486;2023-05-07T02:32:55;12.10;99.90
12841;DHT22;6487;48.626;12.486;2023-05-07T02:35:26;12.00;99.90
12841;DHT22;6487;48.626;12.486;2023-05-07T02:37:54;12.00;99.90
12841;DHT22;6487;48.626;12.486;2023-05-07T02:40:23;12.10;99.90
12841;DHT22;6487;48.626;12.486;2023-05-07T02:42:54;12.00;99.90
12841;DHT22;6487;48.626;12.486;2023-05-07T02:45:24;12.00;99.90
12841;DHT22;6487;48.626;12.486;2023-05-07T02:47:53;11.90;99.90
12841;DHT22;6487;48.626;12.486;2023-05-07T02:50:21;11.90;99.90
12841;DHT22;6487;48.626;12.486;2023-05-07T02:52:50;11.80;99.90
12841;DHT22;6487;48.626;12.486;2023-05-07T02:55:21;11.90;99.90
12841;DHT22;6487;48.626;12.486;2023-05-07T02:57:49;11.90;99.90
12841;DHT22;6487;48.626;12.486;2023-05-07T03:00:20;11.90;99.90
12841;DHT22;6487;48.626;12.486;2023-05-07T03:02:50;11.90;99.90
12841;DHT22;6487;48.626;12.486;2023-05-07T03:05:19;11.90;99.90
12841;DHT22;6487;48.626;12.486;2023-05-07T03:07:47;11.80;99.90
12841;DHT22;6487;48.626;12.486;2023-05-07T03:10:15;11.90;99.90
12841;DHT22;6487;48.626;12.486;2023-05-07T03:12:45;11.90;99.90
12841;DHT22;6487;48.626;12.486;2023-05-07T03:15:13;11.90;99.90
12841;DHT22;6487;48.626;12.486;2023-05-07T03:17:41;11.80;99.90
12841;DHT22;6487;48.626;12.486;2023-05-07T03:20:11;11.80;99.90
12841;DHT22;6487;48.626;12.486;2023-05-07T03:22:40;11.80;99.90
12841;DHT22;6487;48.626;12.486;2023-05-07T03:25:09;11.80;99.90
12841;DHT22;6487;48.626;12.486;2023-05-07T03:27:38;11.80;99.90
12841;DHT22;6487;48.626;12.486;2023-05-07T03:30:07;11.80;99.90
12841;DHT22;6487;48.626;12.486;2023-05-07T03:32:39;11.80;99.90
12841;DHT22;6487;48.626;12.486;2023-05-07T03:35:07;11.80;99.90
12841;DHT22;6487;48.626;12.486;2023-05-07T03:37:38;11.80;99.90
12841;DHT22;6487;48.626;12.486;2023-05-07T03:40:07;11.70;99.90
12841;DHT22;6487;48.626;12.486;2023-05-07T03:42:38;11.70;99.90
12841;DHT22;6487;48.626;12.486;2023-05-07T03:45:07;11.70;99.90
12841;DHT22;6487;48.626;12.486;2023-05-07T03:47:36;11.60;99.90
12841;DHT22;6487;48.626;12.486;2023-05-07T03:50:05;11.60;99.90
12841;DHT22;6487;48.626;12.486;2023-05-07T03:52:39;11.50;99.90
12841;DHT22;6487;48.626;12.486;2023-05-07T03:55:08;11.50;99.90
12841;DHT22;6487;48.626;12.486;2023-05-07T03:57:37;11.50;99.90
12841;DHT22;6487;48.626;12.486;2023-05-07T04:00:08;11.50;99.90
12841;DHT22;6487;48.626;12.486;2023-05-07T04:02:38;11.60;99.90
12841;DHT22;6487;48.626;12.486;2023-05-07T04:05:07;11.60;99.90
12841;DHT22;6487;48.626;12.486;2023-05-07T04:07:36;11.60;99.90
12841;DHT22;6487;48.626;12.486;2023-05-07T04:10:06;11.60;99.90
12841;DHT22;6487;48.626;12.486;2023-05-07T04:12:35;11.60;99.90
12841;DHT22;6487;48.626;12.486;2023-05-07T04:15:04;11.60;99.90
12841;DHT22;6487;48.626;12.486;2023-05-07T04:17:33;11.60;99.90
12841;DHT22;6487;48.626;12.486;2023-05-07T04:20:06;11.60;99.90
12841;DHT22;6487;48.626;12.486;2023-05-07T04:22:37;11.70;99.90
12841;DHT22;6487;48.626;12.486;2023-05-07T04:25:08;11.80;99.90
12841;DHT22;6487;48.626;12.486;2023-05-07T04:27:37;11.80;99.90
12841;DHT22;6487;48.626;12.486;2023-05-07T04:30:07;11.80;99.90
12841;DHT22;6487;48.626;12.486;2023-05-07T04:32:36;11.80;99.90
12841;DHT22;6487;48.626;12.486;2023-05-07T04:35:05;11.80;99.90
12841;DHT22;6487;48.626;12.486;2023-05-07T04:37:34;11.80;99.90
12841;DHT22;6487;48.626;12.486;2023-05-07T04:40:02;11.90;99.90
12841;DHT22;6487;48.626;12.486;2023-05-07T04:42:36;11.90;99.90
12841;DHT22;6487;48.626;12.486;2023-05-07T04:45:05;11.90;99.90
12841;DHT22;6487;48.626;12.486;2023-05-07T04:47:35;12.00;99.90
12841;DHT22;6487;48.626;12.486;2023-05-07T04:50:04;11.90;99.90
12841;DHT22;6487;48.626;12.486;2023-05-07T04:52:35;11.90;99.90
12841;DHT22;6487;48.626;12.486;2023-05-07T04:55:04;11.90;99.90
12841;DHT22;6487;48.626;12.486;2023-05-07T04:57:33;12.00;99.90
12841;DHT22;6487;48.626;12.486;2023-05-07T05:00:03;12.00;99.90
12841;DHT22;6487;48.626;12.486;2023-05-07T05:02:35;12.00;99.90
12841;DHT22;6487;48.626;12.486;2023-05-07T05:05:04;12.10;99.90
12841;DHT22;6487;48.626;12.486;2023-05-07T05:07:33;12.10;99.90
12841;DHT22;6487;48.626;12.486;2023-05-07T05:10:02;12.20;99.90
12841;DHT22;6487;48.626;12.486;2023-05-07T05:12:31;12.20;99.90
12841;DHT22;6487;48.626;12.486;2023-05-07T05:15:04;12.20;99.90
12841;DHT22;6487;48.626;12.486;2023-05-07T05:17:33;12.20;99.90
12841;DHT22;6487;48.626;12.486;2023-05-07T05:20:06;12.30;99.90
12841;DHT22;6487;48.626;12.486;2023-05-07T05:22:41;12.30;99.90
12841;DHT22;6487;48.626;12.486;2023-05-07T05:25:09;12.40;99.90
12841;DHT22;6487;48.626;12.486;2023-05-07T05:27:38;12.60;99.90
12841;DHT22;6487;48.626;12.486;2023-05-07T05:30:08;12.60;99.90
12841;DHT22;6487;48.626;12.486;2023-05-07T05:32:38;12.70;99.90
12841;DHT22;6487;48.626;12.486;2023-05-07T05:35:07;12.90;99.90
12841;DHT22;6487;48.626;12.486;2023-05-07T05:37:39;13.00;99.90
12841;DHT22;6487;48.626;12.486;2023-05-07T05:40:08;13.00;99.90
12841;DHT22;6487;48.626;12.486;2023-05-07T05:42:37;13.20;99.90
12841;DHT22;6487;48.626;12.486;2023-05-07T05:45:08;13.30;99.90
12841;DHT22;6487;48.626;12.486;2023-05-07T05:47:41;13.20;99.90
12841;DHT22;6487;48.626;12.486;2023-05-07T05:50:09;13.30;99.90
12841;DHT22;6487;48.626;12.486;2023-05-07T05:52:38;13.40;99.90
12841;DHT22;6487;48.626;12.486;2023-05-07T05:55:08;13.60;99.90
12841;DHT22;6487;48.626;12.486;2023-05-07T05:57:36;13.60;99.90
12841;DHT22;6487;48.626;12.486;2023-05-07T06:00:08;13.70;99.90
12841;DHT22;6487;48.626;12.486;2023-05-07T06:02:37;13.80;99.90
12841;DHT22;6487;48.626;12.486;2023-05-07T06:05:12;14.00;99.90
12841;DHT22;6487;48.626;12.486;2023-05-07T06:07:41;14.20;99.90
12841;DHT22;6487;48.626;12.486;2023-05-07T06:10:09;14.30;99.90
12841;DHT22;6487;48.626;12.486;2023-05-07T06:12:39;14.30;99.90
12841;DHT22;6487;48.626;12.486;2023-05-07T06:15:12;14.50;99.90
12841;DHT22;6487;48.626;12.486;2023-05-07T06:17:40;14.60;99.90
12841;DHT22;6487;48.626;12.486;2023-05-07T06:20:09;14.70;99.90
12841;DHT22;6487;48.626;12.486;2023-05-07T06:22:38;14.80;99.90
12841;DHT22;6487;48.626;12.486;2023-05-07T06:25:07;15.00;99.90
12841;DHT22;6487;48.626;12.486;2023-05-07T06:27:36;15.10;99.90
12841;DHT22;6487;48.626;12.486;2023-05-07T06:30:07;15.30;99.90
12841;DHT22;6487;48.626;12.486;2023-05-07T06:32:37;15.50;99.90
12841;DHT22;6487;48.626;12.486;2023-05-07T06:35:06;15.60;99.90
12841;DHT22;6487;48.626;12.486;2023-05-07T06:37:35;15.80;99.90
12841;DHT22;6487;48.626;12.486;2023-05-07T06:40:06;16.00;99.90
12841;DHT22;6487;48.626;12.486;2023-05-07T06:42:37;16.20;99.90
12841;DHT22;6487;48.626;12.486;2023-05-07T06:45:06;16.40;99.90
12841;DHT22;6487;48.626;12.486;2023-05-07T06:47:43;16.50;99.90
12841;DHT22;6487;48.626;12.486;2023-05-07T06:50:14;16.60;99.90
12841;DHT22;6487;48.626;12.486;2023-05-07T06:52:43;16.70;99.90
12841;DHT22;6487;48.626;12.486;2023-05-07T06:55:12;16.80;99.90
12841;DHT22;6487;48.626;12.486;2023-05-07T06:57:42;17.00;99.90
12841;DHT22;6487;48.626;12.486;2023-05-07T07:00:11;17.20;99.90
12841;DHT22;6487;48.626;12.486;2023-05-07T07:02:41;17.30;99.90
12841;DHT22;6487;48.626;12.486;2023-05-07T07:05:10;17.40;99.90
12841;DHT22;6487;48.626;12.486;2023-05-07T07:07:41;17.60;99.90
12841;DHT22;6487;48.626;12.486;2023-05-07T07:10:10;17.80;99.90
12841;DHT22;6487;48.626;12.486;2023-05-07T07:12:41;18.00;99.90
12841;DHT22;6487;48.626;12.486;2023-05-07T07:15:11;18.00;99.90
12841;DHT22;6487;48.626;12.486;2023-05-07T07:17:39;18.20;99.90
12841;DHT22;6487;48.626;12.486;2023-05-07T07:20:10;18.40;99.90
12841;DHT22;6487;48.626;12.486;2023-05-07T07:22:39;18.60;99.90
12841;DHT22;6487;48.626;12.486;2023-05-07T07:25:08;18.70;99.90
12841;DHT22;6487;48.626;12.486;2023-05-07T07:27:37;18.90;99.90
12841;DHT22;6487;48.626;12.486;2023-05-07T07:30:07;19.00;99.90
12841;DHT22;6487;48.626;12.486;2023-05-07T07:32:37;19.20;99.90
12841;DHT22;6487;48.626;12.486;2023-05-07T07:35:07;19.30;99.90
12841;DHT22;6487;48.626;12.486;2023-05-07T07:37:37;19.30;99.90
12841;DHT22;6487;48.626;12.486;2023-05-07T07:40:06;19.50;99.90
12841;DHT22;6487;48.626;12.486;2023-05-07T07:42:36;19.50;99.90
12841;DHT22;6487;48.626;12.486;2023-05-07T07:45:05;19.50;99.90
12841;DHT22;6487;48.626;12.486;2023-05-07T07:47:35;19.50;99.90
12841;DHT22;6487;48.626;12.486;2023-05-07T07:50:04;19.50;99.90
12841;DHT22;6487;48.626;12.486;2023-05-07T07:52:35;19.60;99.90
12841;DHT22;6487;48.626;12.486;2023-05-07T07:55:04;19.70;99.90
12841;DHT22;6487;48.626;12.486;2023-05-07T07:57:35;19.90;99.90
12841;DHT22;6487;48.626;12.486;2023-05-07T08:00:05;20.10;99.90
12841;DHT22;6487;48.626;12.486;2023-05-07T08:02:35;20.10;99.90
12841;DHT22;6487;48.626;12.486;2023-05-07T08:05:04;20.20;99.90
12841;DHT22;6487;48.626;12.486;2023-05-07T08:07:32;20.40;99.90
12841;DHT22;6487;48.626;12.486;2023-05-07T08:10:02;20.60;99.90
12841;DHT22;6487;48.626;12.486;2023-05-07T08:12:31;20.60;99.90
12841;DHT22;6487;48.626;12.486;2023-05-07T08:15:02;20.60;99.90
12841;DHT22;6487;48.626;12.486;2023-05-07T08:17:31;20.60;99.90
12841;DHT22;6487;48.626;12.486;2023-05-07T08:20:00;20.80;99.90
12841;DHT22;6487;48.626;12.486;2023-05-07T08:22:28;21.00;99.70
12841;DHT22;6487;48.626;12.486;2023-05-07T08:24:56;21.00;99.90
12841;DHT22;6487;48.626;12.486;2023-05-07T08:27:27;21.30;99.90
12841;DHT22;6487;48.626;12.486;2023-05-07T08:29:56;21.30;99.10
12841;DHT22;6487;48.626;12.486;2023-05-07T08:32:24;21.50;99.70
12841;DHT22;6487;48.626;12.486;2023-05-07T08:34:53;21.60;99.90
12841;DHT22;6487;48.626;12.486;2023-05-07T08:37:21;21.80;99.80
12841;DHT22;6487;48.626;12.486;2023-05-07T08:39:49;21.80;98.80
12841;DHT22;6487;48.626;12.486;2023-05-07T08:42:18;21.60;98.60
12841;DHT22;6487;48.626;12.486;2023-05-07T08:44:59;21.80;99.60
12841;DHT22;6487;48.626;12.486;2023-05-07T08:47:40;21.70;98.20
12841;DHT22;6487;48.626;12.486;2023-05-07T08:50:11;21.80;99.50
12841;DHT22;6487;48.626;12.486;2023-05-07T08:52:40;21.90;99.10
12841;DHT22;6487;48.626;12.486;2023-05-07T08:55:12;22.20;98.40
12841;DHT22;6487;48.626;12.486;2023-05-07T08:57:41;22.40;99.50
12841;DHT22;6487;48.626;12.486;2023-05-07T09:00:15;22.60;98.10
12841;DHT22;6487;48.626;12.486;2023-05-07T09:02:44;22.80;99.00
12841;DHT22;6487;48.626;12.486;2023-05-07T09:05:12;23.00;98.00
12841;DHT22;6487;48.626;12.486;2023-05-07T09:07:41;23.20;98.90
12841;DHT22;6487;48.626;12.486;2023-05-07T09:10:09;23.20;96.30
12841;DHT22;6487;48.626;12.486;2023-05-07T09:12:39;23.10;97.70
12841;DHT22;6487;48.626;12.486;2023-05-07T09:15:11;23.20;98.20
12841;DHT22;6487;48.626;12.486;2023-05-07T09:17:46;23.30;97.90
12841;DHT22;6487;48.626;12.486;2023-05-07T09:20:16;23.40;95.40
12841;DHT22;6487;48.626;12.486;2023-05-07T09:22:44;23.30;96.90
12841;DHT22;6487;48.626;12.486;2023-05-07T09:25:13;23.50;97.20
12841;DHT22;6487;48.626;12.486;2023-05-07T09:27:44;23.70;96.50
12841;DHT22;6487;48.626;12.486;2023-05-07T09:30:13;23.70;96.00
12841;DHT22;6487;48.626;12.486;2023-05-07T09:32:45;23.60;96.00
12841;DHT22;6487;48.626;12.486;2023-05-07T09:35:17;23.40;96.00
12841;DHT22;6487;48.626;12.486;2023-05-07T09:37:48;23.30;95.50
12841;DHT22;6487;48.626;12.486;2023-05-07T09:40:23;23.50;96.20
12841;DHT22;6487;48.626;12.486;2023-05-07T09:42:53;23.20;96.40
12841;DHT22;6487;48.626;12.486;2023-05-07T09:45:25;23.20;96.30
12841;DHT22;6487;48.626;12.486;2023-05-07T09:47:58;23.30;97.20
12841;DHT22;6487;48.626;12.486;2023-05-07T09:50:28;23.40;96.80
12841;DHT22;6487;48.626;12.486;2023-05-07T09:52:57;23.40;94.60
12841;DHT22;6487;48.626;12.486;2023-05-07T09:55:29;23.30;95.60
12841;DHT22;6487;48.626;12.486;2023-05-07T09:57:59;23.50;94.40
12841;DHT22;6487;48.626;12.486;2023-05-07T10:00:29;23.80;95.90
12841;DHT22;6487;48.626;12.486;2023-05-07T10:03:00;23.90;95.40
12841;DHT22;6487;48.626;12.486;2023-05-07T10:05:32;24.20;94.80
12841;DHT22;6487;48.626;12.486;2023-05-07T10:08:01;24.40;94.90
12841;DHT22;6487;48.626;12.486;2023-05-07T10:10:32;24.30;93.80
12841;DHT22;6487;48.626;12.486;2023-05-07T10:13:02;24.20;93.30
12841;DHT22;6487;48.626;12.486;2023-05-07T10:15:32;24.10;95.40
12841;DHT22;6487;48.626;12.486;2023-05-07T10:18:04;24.30;95.20
12841;DHT22;6487;48.626;12.486;2023-05-07T10:20:36;24.00;93.70
12841;DHT22;6487;48.626;12.486;2023-05-07T10:23:05;24.10;94.90
12841;DHT22;6487;48.626;12.486;2023-05-07T10:25:35;23.90;93.80
12841;DHT22;6487;48.626;12.486;2023-05-07T10:28:06;23.90;93.70
12841;DHT22;6487;48.626;12.486;2023-05-07T10:30:44;23.90;94.40
12841;DHT22;6487;48.626;12.486;2023-05-07T10:33:24;23.90;92.90
12841;DHT22;6487;48.626;12.486;2023-05-07T10:35:57;24.00;92.30
12841;DHT22;6487;48.626;12.486;2023-05-07T10:38:27;24.10;94.60
12841;DHT22;6487;48.626;12.486;2023-05-07T10:40:56;24.20;94.40
12841;DHT22;6487;48.626;12.486;2023-05-07T10:43:25;24.20;93.80
12841;DHT22;6487;48.626;12.486;2023-05-07T10:46:14;24.30;93.80
12841;DHT22;6487;48.626;12.486;2023-05-07T10:49:12;24.30;95.30
12841;DHT22;6487;48.626;12.486;2023-05-07T10:51:41;24.20;92.30
12841;DHT22;6487;48.626;12.486;2023-05-07T10:54:18;24.10;94.10
12841;DHT22;6487;48.626;12.486;2023-05-07T10:56:48;24.40;94.60
12841;DHT22;6487;48.626;12.486;2023-05-07T10:59:41;24.30;94.20
12841;DHT22;6487;48.626;12.486;2023-05-07T11:02:10;24.60;92.40
12841;DHT22;6487;48.626;12.486;2023-05-07T11:04:42;24.60;92.00
12841;DHT22;6487;48.626;12.486;2023-05-07T11:07:29;24.50;91.50
12841;DHT22;6487;48.626;12.486;2023-05-07T11:10:05;24.80;91.80
12841;DHT22;6487;48.626;12.486;2023-05-07T11:12:51;25.00;90.60
12841;DHT22;6487;48.626;12.486;2023-05-07T11:15:47;25.20;91.50
12841;DHT22;6487;48.626;12.486;2023-05-07T11:18:17;25.30;90.60
12841;DHT22;6487;48.626;12.486;2023-05-07T11:20:53;25.30;88.80
12841;DHT22;6487;48.626;12.486;2023-05-07T11:23:55;25.40;91.50
12841;DHT22;6487;48.626;12.486;2023-05-07T11:26:29;25.50;90.30
12841;DHT22;6487;48.626;12.486;2023-05-07T11:28:59;25.50;91.50
12841;DHT22;6487;48.626;12.486;2023-05-07T11:31:28;25.50;90.10
12841;DHT22;6487;48.626;12.486;2023-05-07T11:33:57;25.80;90.60
12841;DHT22;6487;48.626;12.486;2023-05-07T11:36:32;25.90;90.60
12841;DHT22;6487;48.626;12.486;2023-05-07T11:39:01;25.80;90.30
12841;DHT22;6487;48.626;12.486;2023-05-07T11:41:35;26.00;88.70
12841;DHT22;6487;48.626;12.486;2023-05-07T11:44:04;25.80;83.80
12841;DHT22;6487;48.626;12.486;2023-05-07T11:46:33;25.80;88.40
12841;DHT22;6487;48.626;12.486;2023-05-07T11:49:02;25.90;86.70
12841;DHT22;6487;48.626;12.486;2023-05-07T11:51:32;26.10;88.50
12841;DHT22;6487;48.626;12.486;2023-05-07T11:54:04;26.00;88.70
12841;DHT22;6487;48.626;12.486;2023-05-07T11:56:35;25.90;84.80
12841;DHT22;6487;48.626;12.486;2023-05-07T11:59:04;25.60;83.30
12841;DHT22;6487;48.626;12.486;2023-05-07T12:01:35;25.90;88.90
12841;DHT22;6487;48.626;12.486;2023-05-07T12:04:04;26.00;81.50
12841;DHT22;6487;48.626;12.486;2023-05-07T12:06:38;26.10;86.00
12841;DHT22;6487;48.626;12.486;2023-05-07T12:09:07;26.30;82.20
12841;DHT22;6487;48.626;12.486;2023-05-07T12:11:38;26.40;82.10
12841;DHT22;6487;48.626;12.486;2023-05-07T12:14:07;26.20;81.80
12841;DHT22;6487;48.626;12.486;2023-05-07T12:16:40;26.40;85.20
12841;DHT22;6487;48.626;12.486;2023-05-07T12:19:08;26.40;81.40
12841;DHT22;6487;48.626;12.486;2023-05-07T12:21:43;26.30;81.80
12841;DHT22;6487;48.626;12.486;2023-05-07T12:24:11;26.60;86.90
12841;DHT22;6487;48.626;12.486;2023-05-07T12:26:43;26.70;82.90
12841;DHT22;6487;48.626;12.486;2023-05-07T12:29:11;26.70;81.80
12841;DHT22;6487;48.626;12.486;2023-05-07T12:31:40;26.50;81.70
12841;DHT22;6487;48.626;12.486;2023-05-07T12:34:11;26.60;80.60
12841;DHT22;6487;48.626;12.486;2023-05-07T12:36:44;26.70;83.00
12841;DHT22;6487;48.626;12.486;2023-05-07T12:39:12;26.70;81.50
12841;DHT22;6487;48.626;12.486;2023-05-07T12:41:53;26.50;80.40
12841;DHT22;6487;48.626;12.486;2023-05-07T12:44:22;26.10;79.80
12841;DHT22;6487;48.626;12.486;2023-05-07T12:46:51;25.90;83.40
12841;DHT22;6487;48.626;12.486;2023-05-07T12:49:20;26.00;79.50
12841;DHT22;6487;48.626;12.486;2023-05-07T12:51:53;26.10;80.30
12841;DHT22;6487;48.626;12.486;2023-05-07T12:54:28;25.90;83.20
12841;DHT22;6487;48.626;12.486;2023-05-07T12:57:01;25.70;80.10
12841;DHT22;6487;48.626;12.486;2023-05-07T12:59:34;25.60;81.40
12841;DHT22;6487;48.626;12.486;2023-05-07T13:02:04;25.50;81.90
12841;DHT22;6487;48.626;12.486;2023-05-07T13:04:33;25.30;80.20
12841;DHT22;6487;48.626;12.486;2023-05-07T13:07:03;25.40;80.40
12841;DHT22;6487;48.626;12.486;2023-05-07T13:09:31;25.40;82.00
12841;DHT22;6487;48.626;12.486;2023-05-07T13:12:00;25.40;80.40
12841;DHT22;6487;48.626;12.486;2023-05-07T13:14:29;25.40;78.60
12841;DHT22;6487;48.626;12.486;2023-05-07T13:16:57;25.20;79.40
12841;DHT22;6487;48.626;12.486;2023-05-07T13:19:28;25.10;78.80
12841;DHT22;6487;48.626;12.486;2023-05-07T13:21:59;25.10;79.70
12841;DHT22;6487;48.626;12.486;2023-05-07T13:24:29;25.10;79.40
12841;DHT22;6487;48.626;12.486;2023-05-07T13:26:58;25.30;82.20
12841;DHT22;6487;48.626;12.486;2023-05-07T13:29:26;25.40;82.00
12841;DHT22;6487;48.626;12.486;2023-05-07T13:31:57;25.50;81.70
12841;DHT22;6487;48.626;12.486;2023-05-07T13:34:27;25.50;83.30
12841;DHT22;6487;48.626;12.486;2023-05-07T13:36:56;25.40;82.30
12841;DHT22;6487;48.626;12.486;2023-05-07T13:39:24;25.50;81.90
12841;DHT22;6487;48.626;12.486;2023-05-07T13:41:54;25.40;81.60
12841;DHT22;6487;48.626;12.486;2023-05-07T13:44:24;25.50;81.20
12841;DHT22;6487;48.626;12.486;2023-05-07T13:46:56;25.50;84.30
12841;DHT22;6487;48.626;12.486;2023-05-07T13:49:24;25.60;82.50
12841;DHT22;6487;48.626;12.486;2023-05-07T13:51:53;25.30;83.30
12841;DHT22;6487;48.626;12.486;2023-05-07T13:54:21;25.30;80.90
12841;DHT22;6487;48.626;12.486;2023-05-07T13:56:54;25.40;82.90
12841;DHT22;6487;48.626;12.486;2023-05-07T13:59:23;25.20;85.40
12841;DHT22;6487;48.626;12.486;2023-05-07T14:01:51;25.30;83.70
12841;DHT22;6487;48.626;12.486;2023-05-07T14:04:20;25.10;82.70
12841;DHT22;6487;48.626;12.486;2023-05-07T14:06:48;25.20;81.30
12841;DHT22;6487;48.626;12.486;2023-05-07T14:09:17;25.20;82.90
12841;DHT22;6487;48.626;12.486;2023-05-07T14:11:45;25.40;83.80
12841;DHT22;6487;48.626;12.486;2023-05-07T14:14:17;25.30;83.00
12841;DHT22;6487;48.626;12.486;2023-05-07T14:16:45;25.20;83.40
12841;DHT22;6487;48.626;12.486;2023-05-07T14:19:16;25.20;84.50
12841;DHT22;6487;48.626;12.486;2023-05-07T14:21:45;25.30;84.10
12841;DHT22;6487;48.626;12.486;2023-05-07T14:24:16;25.20;83.40
12841;DHT22;6487;48.626;12.486;2023-05-07T14:27:03;25.30;83.20
12841;DHT22;6487;48.626;12.486;2023-05-07T14:29:34;25.30;84.00
12841;DHT22;6487;48.626;12.486;2023-05-07T14:32:03;25.20;84.60
12841;DHT22;6487;48.626;12.486;2023-05-07T14:34:32;25.20;84.20
12841;DHT22;6487;48.626;12.486;2023-05-07T14:37:03;25.20;85.70
12841;DHT22;6487;48.626;12.486;2023-05-07T14:39:33;24.80;83.80
12841;DHT22;6487;48.626;12.486;2023-05-07T14:42:02;24.90;83.20
12841;DHT22;6487;48.626;12.486;2023-05-07T14:44:31;24.90;84.70
12841;DHT22;6487;48.626;12.486;2023-05-07T14:47:01;24.50;86.00
12841;DHT22;6487;48.626;12.486;2023-05-07T14:49:30;24.50;86.80
12841;DHT22;6487;48.626;12.486;2023-05-07T14:52:01;24.00;89.40
12841;DHT22;6487;48.626;12.486;2023-05-07T14:54:33;23.90;90.00
12841;DHT22;6487;48.626;12.486;2023-05-07T14:57:05;23.90;89.90
12841;DHT22;6487;48.626;12.486;2023-05-07T14:59:39;23.90;90.30
12841;DHT22;6487;48.626;12.486;2023-05-07T15:02:12;23.80;90.00
12841;DHT22;6487;48.626;12.486;2023-05-07T15:04:41;23.60;90.20
12841;DHT22;6487;48.626;12.486;2023-05-07T15:07:13;23.30;90.50
12841;DHT22;6487;48.626;12.486;2023-05-07T15:09:42;23.30;90.50
12841;DHT22;6487;48.626;12.486;2023-05-07T15:12:10;23.30;90.50
12841;DHT22;6487;48.626;12.486;2023-05-07T15:14:41;23.20;91.50
12841;DHT22;6487;48.626;12.486;2023-05-07T15:17:11;23.20;91.20
12841;DHT22;6487;48.626;12.486;2023-05-07T15:19:41;23.20;90.90
12841;DHT22;6487;48.626;12.486;2023-05-07T15:22:12;23.30;91.10
12841;DHT22;6487;48.626;12.486;2023-05-07T15:24:41;23.30;90.70
12841;DHT22;6487;48.626;12.486;2023-05-07T15:27:10;23.00;90.80
12841;DHT22;6487;48.626;12.486;2023-05-07T15:29:38;22.90;91.00
12841;DHT22;6487;48.626;12.486;2023-05-07T15:32:07;23.00;91.60
12841;DHT22;6487;48.626;12.486;2023-05-07T15:34:37;23.20;91.60
12841;DHT22;6487;48.626;12.486;2023-05-07T15:37:05;23.20;91.70
12841;DHT22;6487;48.626;12.486;2023-05-07T15:39:34;23.20;91.70
12841;DHT22;6487;48.626;12.486;2023-05-07T15:42:02;23.00;92.10
12841;DHT22;6487;48.626;12.486;2023-05-07T15:44:31;23.00;92.80
12841;DHT22;6487;48.626;12.486;2023-05-07T15:47:01;22.80;91.80
12841;DHT22;6487;48.626;12.486;2023-05-07T15:49:30;22.70;92.10
12841;DHT22;6487;48.626;12.486;2023-05-07T15:52:00;22.80;92.20